sensor_id;sensor_type;location;lat;lon;timestamp;temperature;humidity
20231;DHT22;10274;49.022;9.338;2024-02-28T00:00:41;7.70;1.00
20231;DHT22;10274;49.022;9.338;2024-02-28T00:03:07;7.70;1.00
20231;DHT22;10274;49.022;9.338;2024-02-28T00:05:35;7.70;1.00
20231;DHT22;10274;49.022;9.338;2024-02-28T00:08:02;7.80;1.00
20231;DHT22;10274;49.022;9.338;2024-02-28T00:10:29;7.80;1.00
20231;DHT22;10274;49.022;9.338;2024-02-28T00:12:56;7.70;1.00
20231;DHT22;10274;49.022;9.338;2024-02-28T00:15:23;7.70;1.00
20231;DHT22;10274;49.022;9.338;2024-02-28T00:17:52;7.70;1.00
20231;DHT22;10274;49.022;9.338;2024-02-28T00:20:19;7.70;1.00
20231;DHT22;10274;49.022;9.338;2024-02-28T00:22:47;7.70;1.00
20231;DHT22;10274;49.022;9.338;2024-02-28T00:25:13;7.70;1.00
20231;DHT22;10274;49.022;9.338;2024-02-28T00:27:41;7.70;1.00
20231;DHT22;10274;49.022;9.338;2024-02-28T00:30:08;7.70;1.00
20231;DHT22;10274;49.022;9.338;2024-02-28T00:32:35;7.60;1.00
20231;DHT22;10274;49.022;9.338;2024-02-28T00:35:02;7.60;1.00
20231;DHT22;10274;49.022;9.338;2024-02-28T00:37:29;7.70;1.00
20231;DHT22;10274;49.022;9.338;2024-02-28T00:39:57;7.70;1.00
20231;DHT22;10274;49.022;9.338;2024-02-28T00:42:24;7.70;1.00
20231;DHT22;10274;49.022;9.338;2024-02-28T00:44:51;7.70;1.00
20231;DHT22;10274;49.022;9.338;2024-02-28T00:47:17;7.70;1.00
20231;DHT22;10274;49.022;9.338;2024-02-28T00:49:44;7.70;1.00
20231;DHT22;10274;49.022;9.338;2024-02-28T00:52:11;7.70;1.00
20231;DHT22;10274;49.022;9.338;2024-02-28T00:54:37;7.70;1.00
20231;DHT22;10274;49.022;9.338;2024-02-28T00:57:05;7.70;1.00
20231;DHT22;10274;49.022;9.338;2024-02-28T00:59:32;7.70;1.00
20231;DHT22;10274;49.022;9.338;2024-02-28T01:01:59;7.70;1.00
20231;DHT22;10274;49.022;9.338;2024-02-28T01:04:25;7.70;1.00
20231;DHT22;10274;49.022;9.338;2024-02-28T01:06:52;7.70;1.00
20231;DHT22;10274;49.022;9.338;2024-02-28T01:09:19;7.70;1.00
20231;DHT22;10274;49.022;9.338;2024-02-28T01:11:45;7.70;1.00
20231;DHT22;10274;49.022;9.338;2024-02-28T01:14:13;7.70;1.00
20231;DHT22;10274;49.022;9.338;2024-02-28T01:16:40;7.70;1.00
20231;DHT22;10274;49.022;9.338;2024-02-28T01:19:06;7.70;1.00
20231;DHT22;10274;49.022;9.338;2024-02-28T01:21:33;7.70;1.00
20231;DHT22;10274;49.022;9.338;2024-02-28T01:24:00;7.70;1.00
20231;DHT22;10274;49.022;9.338;2024-02-28T01:26:26;7.70;1.00
20231;DHT22;10274;49.022;9.338;2024-02-28T01:28:53;7.70;1.00
20231;DHT22;10274;49.022;9.338;2024-02-28T01:31:21;7.60;1.00
20231;DHT22;10274;49.022;9.338;2024-02-28T01:33:48;7.60;1.00
20231;DHT22;10274;49.022;9.338;2024-02-28T01:36:13;7.70;1.00
20231;DHT22;10274;49.022;9.338;2024-02-28T01:38:40;7.60;1.00
20231;DHT22;10274;49.022;9.338;2024-02-28T01:41:07;7.70;1.00
20231;DHT22;10274;49.022;9.338;2024-02-28T01:43:34;7.70;1.00
20231;DHT22;10274;49.022;9.338;2024-02-28T01:46:03;7.60;1.00
20231;DHT22;10274;49.022;9.338;2024-02-28T01:48:31;7.60;1.00
20231;DHT22;10274;49.022;9.338;2024-02-28T01:50:58;7.60;1.00
20231;DHT22;10274;49.022;9.338;2024-02-28T01:53:26;7.60;1.00
20231;DHT22;10274;49.022;9.338;2024-02-28T01:55:53;7.60;1.00
20231;DHT22;10274;49.022;9.338;2024-02-28T01:58:21;7.60;1.00
20231;DHT22;10274;49.022;9.338;2024-02-28T02:00:47;7.60;1.00
20231;DHT22;10274;49.022;9.338;2024-02-28T02:03:15;7.60;1.00
20231;DHT22;10274;49.022;9.338;2024-02-28T02:05:44;7.50;1.00
20231;DHT22;10274;49.022;9.338;2024-02-28T02:08:11;7.50;1.00
20231;DHT22;10274;49.022;9.338;2024-02-28T02:10:37;7.50;1.00
20231;DHT22;10274;49.022;9.338;2024-02-28T02:13:05;7.50;1.00
20231;DHT22;10274;49.022;9.338;2024-02-28T02:15:31;7.40;1.00
20231;DHT22;10274;49.022;9.338;2024-02-28T02:17:58;7.50;1.00
20231;DHT22;10274;49.022;9.338;2024-02-28T02:20:26;7.50;1.00
20231;DHT22;10274;49.022;9.338;2024-02-28T02:22:54;7.50;1.00
20231;DHT22;10274;49.022;9.338;2024-02-28T02:25:21;7.50;1.00
20231;DHT22;10274;49.022;9.338;2024-02-28T02:27:47;7.40;1.00
20231;DHT22;10274;49.022;9.338;2024-02-28T02:30:14;7.40;1.00
20231;DHT22;10274;49.022;9.338;2024-02-28T02:32:41;7.40;1.00
20231;DHT22;10274;49.022;9.338;2024-02-28T02:35:08;7.50;1.00
20231;DHT22;10274;49.022;9.338;2024-02-28T02:37:35;7.40;1.00
20231;DHT22;10274;49.022;9.338;2024-02-28T02:40:03;7.40;1.00
20231;DHT22;10274;49.022;9.338;2024-02-28T02:42:30;7.50;1.00
20231;DHT22;10274;49.022;9.338;2024-02-28T02:44:57;7.40;1.00
20231;DHT22;10274;49.022;9.338;2024-02-28T02:47:23;7.50;1.00
20231;DHT22;10274;49.022;9.338;2024-02-28T02:49:49;7.50;1.00
20231;DHT22;10274;49.022;9.338;2024-02-28T02:52:16;7.50;1.00
20231;DHT22;10274;49.022;9.338;2024-02-28T02:54:42;7.40;1.00
20231;DHT22;10274;49.022;9.338;2024-02-28T02:57:10;7.50;1.00
20231;DHT22;10274;49.022;9.338;2024-02-28T02:59:37;7.40;1.00
20231;DHT22;10274;49.022;9.338;2024-02-28T03:02:04;7.40;1.00
20231;DHT22;10274;49.022;9.338;2024-02-28T03:04:31;7.40;1.00
20231;DHT22;10274;49.022;9.338;2024-02-28T03:06:57;7.40;1.00
20231;DHT22;10274;49.022;9.338;2024-02-28T03:09:24;7.40;1.00
20231;DHT22;10274;49.022;9.338;2024-02-28T03:11:51;7.40;1.00
20231;DHT22;10274;49.022;9.338;2024-02-28T03:14:19;7.30;1.00
20231;DHT22;10274;49.022;9.338;2024-02-28T03:16:47;7.40;1.00
20231;DHT22;10274;49.022;9.338;2024-02-28T03:19:14;7.40;1.00
20231;DHT22;10274;49.022;9.338;2024-02-28T03:21:41;7.40;1.00
20231;DHT22;10274;49.022;9.338;2024-02-28T03:24:08;7.30;1.00
20231;DHT22;10274;49.022;9.338;2024-02-28T03:26:34;7.30;1.00
20231;DHT22;10274;49.022;9.338;2024-02-28T03:29:01;7.30;1.00
20231;DHT22;10274;49.022;9.338;2024-02-28T03:31:29;7.30;1.00
20231;DHT22;10274;49.022;9.338;2024-02-28T03:33:56;7.30;1.00
20231;DHT22;10274;49.022;9.338;2024-02-28T03:36:23;7.30;1.00
20231;DHT22;10274;49.022;9.338;2024-02-28T03:38:49;7.30;1.00
20231;DHT22;10274;49.022;9.338;2024-02-28T03:41:16;7.40;1.00
20231;DHT22;10274;49.022;9.338;2024-02-28T03:43:43;7.40;1.00
20231;DHT22;10274;49.022;9.338;2024-02-28T03:46:10;7.30;1.00
20231;DHT22;10274;49.022;9.338;2024-02-28T03:48:38;7.30;1.00
20231;DHT22;10274;49.022;9.338;2024-02-28T03:51:04;7.30;1.00
20231;DHT22;10274;49.022;9.338;2024-02-28T03:53:31;7.30;1.00
20231;DHT22;10274;49.022;9.338;2024-02-28T03:55:58;7.20;1.00
20231;DHT22;10274;49.022;9.338;2024-02-28T03:58:25;7.20;1.00
20231;DHT22;10274;49.022;9.338;2024-02-28T04:00:51;7.20;1.00
20231;DHT22;10274;49.022;9.338;2024-02-28T04:03:18;7.20;1.00
20231;DHT22;10274;49.022;9.338;2024-02-28T04:05:46;7.20;1.00
20231;DHT22;10274;49.022;9.338;2024-02-28T04:08:13;7.30;1.00
20231;DHT22;10274;49.022;9.338;2024-02-28T04:10:39;7.20;1.00
20231;DHT22;10274;49.022;9.338;2024-02-28T04:13:06;7.20;1.00
20231;DHT22;10274;49.022;9.338;2024-02-28T04:15:33;7.20;1.00
20231;DHT22;10274;49.022;9.338;2024-02-28T04:17:59;7.20;1.00
20231;DHT22;10274;49.022;9.338;2024-02-28T04:20:26;7.20;1.00
20231;DHT22;10274;49.022;9.338;2024-02-28T04:22:54;7.20;1.00
20231;DHT22;10274;49.022;9.338;2024-02-28T04:25:21;7.20;1.00
20231;DHT22;10274;49.022;9.338;2024-02-28T04:27:48;7.20;1.00
20231;DHT22;10274;49.022;9.338;2024-02-28T04:30:15;7.20;1.00
20231;DHT22;10274;49.022;9.338;2024-02-28T04:32:41;7.20;1.00
20231;DHT22;10274;49.022;9.338;2024-02-28T04:35:08;7.30;1.00
20231;DHT22;10274;49.022;9.338;2024-02-28T04:37:35;7.30;1.00
20231;DHT22;10274;49.022;9.338;2024-02-28T04:40:04;7.30;1.00
20231;DHT22;10274;49.022;9.338;2024-02-28T04:42:32;7.30;1.00
20231;DHT22;10274;49.022;9.338;2024-02-28T04:44:58;7.30;1.00
20231;DHT22;10274;49.022;9.338;2024-02-28T04:47:25;7.30;1.00
20231;DHT22;10274;49.022;9.338;2024-02-28T04:49:52;7.20;1.00
20231;DHT22;10274;49.022;9.338;2024-02-28T04:52:18;7.20;1.00
20231;DHT22;10274;49.022;9.338;2024-02-28T04:54:45;7.20;1.00
20231;DHT22;10274;49.022;9.338;2024-02-28T04:57:13;7.20;1.00
20231;DHT22;10274;49.022;9.338;2024-02-28T04:59:42;7.10;1.00
20231;DHT22;10274;49.022;9.338;2024-02-28T05:02:09;7.10;1.00
20231;DHT22;10274;49.022;9.338;2024-02-28T05:04:36;7.10;1.00
20231;DHT22;10274;49.022;9.338;2024-02-28T05:07:03;7.10;1.00
20231;DHT22;10274;49.022;9.338;2024-02-28T05:09:29;7.00;1.00
20231;DHT22;10274;49.022;9.338;2024-02-28T05:11:56;7.00;1.00
20231;DHT22;10274;49.022;9.338;2024-02-28T05:14:25;6.90;1.00
20231;DHT22;10274;49.022;9.338;2024-02-28T05:16:52;6.80;1.00
20231;DHT22;10274;49.022;9.338;2024-02-28T05:19:18;6.80;1.00
20231;DHT22;10274;49.022;9.338;2024-02-28T05:21:45;6.80;1.00
20231;DHT22;10274;49.022;9.338;2024-02-28T05:24:14;6.80;1.00
20231;DHT22;10274;49.022;9.338;2024-02-28T05:26:40;6.80;1.00
20231;DHT22;10274;49.022;9.338;2024-02-28T05:29:07;6.80;1.00
20231;DHT22;10274;49.022;9.338;2024-02-28T05:31:35;6.80;1.00
20231;DHT22;10274;49.022;9.338;2024-02-28T05:34:03;6.80;1.00
20231;DHT22;10274;49.022;9.338;2024-02-28T05:36:31;6.70;1.00
20231;DHT22;10274;49.022;9.338;2024-02-28T05:38:59;6.70;1.00
20231;DHT22;10274;49.022;9.338;2024-02-28T05:41:26;6.70;1.00
20231;DHT22;10274;49.022;9.338;2024-02-28T05:43:53;6.70;1.00
20231;DHT22;10274;49.022;9.338;2024-02-28T05:46:19;6.60;1.00
20231;DHT22;10274;49.022;9.338;2024-02-28T05:48:49;6.70;1.00
20231;DHT22;10274;49.022;9.338;2024-02-28T05:51:16;6.70;1.00
20231;DHT22;10274;49.022;9.338;2024-02-28T05:53:43;6.70;1.00
20231;DHT22;10274;49.022;9.338;2024-02-28T05:56:10;6.70;1.00
20231;DHT22;10274;49.022;9.338;2024-02-28T05:58:39;6.70;1.00
20231;DHT22;10274;49.022;9.338;2024-02-28T06:01:06;6.80;1.00
20231;DHT22;10274;49.022;9.338;2024-02-28T06:03:33;6.90;1.00
20231;DHT22;10274;49.022;9.338;2024-02-28T06:06:02;6.90;1.00
20231;DHT22;10274;49.022;9.338;2024-02-28T06:08:31;6.90;1.00
20231;DHT22;10274;49.022;9.338;2024-02-28T06:10:57;6.90;1.00
20231;DHT22;10274;49.022;9.338;2024-02-28T06:13:24;6.80;1.00
20231;DHT22;10274;49.022;9.338;2024-02-28T06:15:51;6.80;1.00
20231;DHT22;10274;49.022;9.338;2024-02-28T06:18:17;6.90;1.00
20231;DHT22;10274;49.022;9.338;2024-02-28T06:20:44;6.90;1.00
20231;DHT22;10274;49.022;9.338;2024-02-28T06:23:12;6.90;1.00
20231;DHT22;10274;49.022;9.338;2024-02-28T06:25:38;6.80;1.00
20231;DHT22;10274;49.022;9.338;2024-02-28T06:28:05;6.80;1.00
20231;DHT22;10274;49.022;9.338;2024-02-28T06:30:32;6.90;1.00
20231;DHT22;10274;49.022;9.338;2024-02-28T06:32:59;6.80;1.00
20231;DHT22;10274;49.022;9.338;2024-02-28T06:35:26;6.80;1.00
20231;DHT22;10274;49.022;9.338;2024-02-28T06:37:52;6.80;1.00
20231;DHT22;10274;49.022;9.338;2024-02-28T06:40:21;6.80;1.00
20231;DHT22;10274;49.022;9.338;2024-02-28T06:42:48;6.70;1.00
20231;DHT22;10274;49.022;9.338;2024-02-28T06:45:14;6.60;1.00
20231;DHT22;10274;49.022;9.338;2024-02-28T06:47:41;6.60;1.00
20231;DHT22;10274;49.022;9.338;2024-02-28T06:50:10;6.80;1.00
20231;DHT22;10274;49.022;9.338;2024-02-28T06:52:37;6.70;1.00
20231;DHT22;10274;49.022;9.338;2024-02-28T06:55:04;6.80;1.00
20231;DHT22;10274;49.022;9.338;2024-02-28T06:57:36;6.80;1.00
20231;DHT22;10274;49.022;9.338;2024-02-28T07:00:05;6.90;1.00
20231;DHT22;10274;49.022;9.338;2024-02-28T07:02:33;6.90;1.00
20231;DHT22;10274;49.022;9.338;2024-02-28T07:05:00;6.90;1.00
20231;DHT22;10274;49.022;9.338;2024-02-28T07:07:27;6.90;1.00
20231;DHT22;10274;49.022;9.338;2024-02-28T07:09:52;6.70;1.00
20231;DHT22;10274;49.022;9.338;2024-02-28T07:12:19;6.70;1.00
20231;DHT22;10274;49.022;9.338;2024-02-28T07:14:47;6.70;1.00
20231;DHT22;10274;49.022;9.338;2024-02-28T07:17:14;6.80;1.00
20231;DHT22;10274;49.022;9.338;2024-02-28T07:19:41;6.90;1.00
20231;DHT22;10274;49.022;9.338;2024-02-28T07:22:07;6.90;1.00
20231;DHT22;10274;49.022;9.338;2024-02-28T07:24:34;6.90;1.00
20231;DHT22;10274;49.022;9.338;2024-02-28T07:27:01;6.90;1.00
20231;DHT22;10274;49.022;9.338;2024-02-28T07:29:28;7.00;1.00
20231;DHT22;10274;49.022;9.338;2024-02-28T07:31:56;7.00;1.00
20231;DHT22;10274;49.022;9.338;2024-02-28T07:34:22;7.00;1.00
20231;DHT22;10274;49.022;9.338;2024-02-28T07:36:49;7.00;1.00
20231;DHT22;10274;49.022;9.338;2024-02-28T07:39:16;7.00;1.00
20231;DHT22;10274;49.022;9.338;2024-02-28T07:41:43;7.10;1.00
20231;DHT22;10274;49.022;9.338;2024-02-28T07:44:09;7.10;1.00
20231;DHT22;10274;49.022;9.338;2024-02-28T07:46:36;7.10;1.00
20231;DHT22;10274;49.022;9.338;2024-02-28T07:49:04;7.10;1.00
20231;DHT22;10274;49.022;9.338;2024-02-28T07:51:31;7.00;1.00
20231;DHT22;10274;49.022;9.338;2024-02-28T07:53:58;7.00;1.00
20231;DHT22;10274;49.022;9.338;2024-02-28T07:56:24;7.10;1.00
20231;DHT22;10274;49.022;9.338;2024-02-28T07:58:51;7.10;1.00
20231;DHT22;10274;49.022;9.338;2024-02-28T08:01:18;7.10;1.00
20231;DHT22;10274;49.022;9.338;2024-02-28T08:03:44;7.10;1.00
20231;DHT22;10274;49.022;9.338;2024-02-28T08:06:13;7.10;1.00
20231;DHT22;10274;49.022;9.338;2024-02-28T08:08:39;7.10;1.00
20231;DHT22;10274;49.022;9.338;2024-02-28T08:11:06;7.10;1.00
20231;DHT22;10274;49.022;9.338;2024-02-28T08:13:32;6.90;1.00
20231;DHT22;10274;49.022;9.338;2024-02-28T08:15:59;7.00;1.00
20231;DHT22;10274;49.022;9.338;2024-02-28T08:18:26;7.00;1.00
20231;DHT22;10274;49.022;9.338;2024-02-28T08:20:53;7.00;1.00
20231;DHT22;10274;49.022;9.338;2024-02-28T08:23:24;7.00;1.00
20231;DHT22;10274;49.022;9.338;2024-02-28T08:25:51;7.00;1.00
20231;DHT22;10274;49.022;9.338;2024-02-28T08:28:18;7.00;1.00
20231;DHT22;10274;49.022;9.338;2024-02-28T08:30:45;7.10;1.00
20231;DHT22;10274;49.022;9.338;2024-02-28T08:33:12;7.00;1.00
20231;DHT22;10274;49.022;9.338;2024-02-28T08:35:39;7.10;1.00
20231;DHT22;10274;49.022;9.338;2024-02-28T08:38:05;7.10;1.00
20231;DHT22;10274;49.022;9.338;2024-02-28T08:40:33;7.00;1.00
20231;DHT22;10274;49.022;9.338;2024-02-28T08:43:00;7.10;1.00
20231;DHT22;10274;49.022;9.338;2024-02-28T08:45:26;7.10;1.00
20231;DHT22;10274;49.022;9.338;2024-02-28T08:47:53;7.20;1.00
20231;DHT22;10274;49.022;9.338;2024-02-28T08:50:20;7.20;1.00
20231;DHT22;10274;49.022;9.338;2024-02-28T08:52:46;7.20;1.00
20231;DHT22;10274;49.022;9.338;2024-02-28T08:55:13;7.20;1.00
20231;DHT22;10274;49.022;9.338;2024-02-28T08:57:45;7.10;1.00
20231;DHT22;10274;49.022;9.338;2024-02-28T09:00:13;7.10;1.00
20231;DHT22;10274;49.022;9.338;2024-02-28T09:02:40;7.20;1.00
20231;DHT22;10274;49.022;9.338;2024-02-28T09:05:07;7.20;1.00
20231;DHT22;10274;49.022;9.338;2024-02-28T09:07:34;7.30;1.00
20231;DHT22;10274;49.022;9.338;2024-02-28T09:10:03;7.30;1.00
20231;DHT22;10274;49.022;9.338;2024-02-28T09:12:30;7.30;1.00
20231;DHT22;10274;49.022;9.338;2024-02-28T09:14:58;7.30;1.00
20231;DHT22;10274;49.022;9.338;2024-02-28T09:17:25;7.40;1.00
20231;DHT22;10274;49.022;9.338;2024-02-28T09:19:52;7.40;1.00
20231;DHT22;10274;49.022;9.338;2024-02-28T09:22:19;7.60;1.00
20231;DHT22;10274;49.022;9.338;2024-02-28T09:24:47;7.60;1.00
20231;DHT22;10274;49.022;9.338;2024-02-28T09:27:14;7.50;1.00
20231;DHT22;10274;49.022;9.338;2024-02-28T09:29:40;7.40;1.00
20231;DHT22;10274;49.022;9.338;2024-02-28T09:32:08;7.50;1.00
20231;DHT22;10274;49.022;9.338;2024-02-28T09:34:35;7.50;1.00
20231;DHT22;10274;49.022;9.338;2024-02-28T09:37:03;7.60;1.00
20231;DHT22;10274;49.022;9.338;2024-02-28T09:39:30;7.60;1.00
20231;DHT22;10274;49.022;9.338;2024-02-28T09:41:57;7.50;1.00
20231;DHT22;10274;49.022;9.338;2024-02-28T09:44:24;7.50;1.00
20231;DHT22;10274;49.022;9.338;2024-02-28T09:46:52;7.60;1.00
20231;DHT22;10274;49.022;9.338;2024-02-28T09:49:20;7.50;1.00
20231;DHT22;10274;49.022;9.338;2024-02-28T09:51:49;7.40;1.00
20231;DHT22;10274;49.022;9.338;2024-02-28T09:54:16;7.30;1.00
20231;DHT22;10274;49.022;9.338;2024-02-28T09:56:43;7.40;1.00
20231;DHT22;10274;49.022;9.338;2024-02-28T09:59:10;7.50;1.00
20231;DHT22;10274;49.022;9.338;2024-02-28T10:01:42;7.40;1.00
20231;DHT22;10274;49.022;9.338;2024-02-28T10:04:10;7.40;1.00
20231;DHT22;10274;49.022;9.338;2024-02-28T10:06:39;7.40;1.00
20231;DHT22;10274;49.022;9.338;2024-02-28T10:09:06;7.40;1.00
20231;DHT22;10274;49.022;9.338;2024-02-28T10:11:33;7.50;1.00
20231;DHT22;10274;49.022;9.338;2024-02-28T10:14:01;7.60;1.00
20231;DHT22;10274;49.022;9.338;2024-02-28T10:16:28;7.70;1.00
20231;DHT22;10274;49.022;9.338;2024-02-28T10:18:55;7.70;1.00
20231;DHT22;10274;49.022;9.338;2024-02-28T10:21:22;7.70;1.00
20231;DHT22;10274;49.022;9.338;2024-02-28T10:23:50;7.80;1.00
20231;DHT22;10274;49.022;9.338;2024-02-28T10:26:17;7.90;1.00
20231;DHT22;10274;49.022;9.338;2024-02-28T10:28:44;7.80;1.00
20231;DHT22;10274;49.022;9.338;2024-02-28T10:31:11;7.90;1.00
20231;DHT22;10274;49.022;9.338;2024-02-28T10:33:37;7.90;1.00
20231;DHT22;10274;49.022;9.338;2024-02-28T10:36:05;7.90;1.00
20231;DHT22;10274;49.022;9.338;2024-02-28T10:38:32;7.90;1.00
20231;DHT22;10274;49.022;9.338;2024-02-28T10:41:01;7.90;1.00
20231;DHT22;10274;49.022;9.338;2024-02-28T10:43:28;8.00;1.00
20231;DHT22;10274;49.022;9.338;2024-02-28T10:45:57;8.10;1.00
20231;DHT22;10274;49.022;9.338;2024-02-28T10:48:24;8.10;1.00
20231;DHT22;10274;49.022;9.338;2024-02-28T10:50:50;8.20;1.00
20231;DHT22;10274;49.022;9.338;2024-02-28T10:53:21;8.20;1.00
20231;DHT22;10274;49.022;9.338;2024-02-28T10:55:49;7.90;1.00
20231;DHT22;10274;49.022;9.338;2024-02-28T10:58:19;7.90;1.00
20231;DHT22;10274;49.022;9.338;2024-02-28T11:00:49;7.70;1.00
20231;DHT22;10274;49.022;9.338;2024-02-28T11:03:17;7.80;1.00
20231;DHT22;10274;49.022;9.338;2024-02-28T11:05:45;7.80;1.00
20231;DHT22;10274;49.022;9.338;2024-02-28T11:08:20;7.70;1.00
20231;DHT22;10274;49.022;9.338;2024-02-28T11:10:47;7.70;1.00
20231;DHT22;10274;49.022;9.338;2024-02-28T11:13:23;8.00;1.00
20231;DHT22;10274;49.022;9.338;2024-02-28T11:15:49;7.90;1.00
20231;DHT22;10274;49.022;9.338;2024-02-28T11:18:16;8.10;1.00
20231;DHT22;10274;49.022;9.338;2024-02-28T11:20:43;7.90;1.00
20231;DHT22;10274;49.022;9.338;2024-02-28T11:23:11;7.80;1.00
20231;DHT22;10274;49.022;9.338;2024-02-28T11:25:39;7.90;1.00
20231;DHT22;10274;49.022;9.338;2024-02-28T11:28:07;7.80;1.00
20231;DHT22;10274;49.022;9.338;2024-02-28T11:30:35;8.00;1.00
20231;DHT22;10274;49.022;9.338;2024-02-28T11:33:01;8.10;1.00
20231;DHT22;10274;49.022;9.338;2024-02-28T11:35:28;8.00;1.00
20231;DHT22;10274;49.022;9.338;2024-02-28T11:37:55;8.10;1.00
20231;DHT22;10274;49.022;9.338;2024-02-28T11:40:23;8.10;1.00
20231;DHT22;10274;49.022;9.338;2024-02-28T11:42:50;8.20;1.00
20231;DHT22;10274;49.022;9.338;2024-02-28T11:45:17;8.30;1.00
20231;DHT22;10274;49.022;9.338;2024-02-28T11:47:45;8.20;1.00
20231;DHT22;10274;49.022;9.338;2024-02-28T11:50:13;8.30;1.00
20231;DHT22;10274;49.022;9.338;2024-02-28T11:52:40;8.40;1.00
20231;DHT22;10274;49.022;9.338;2024-02-28T11:55:07;8.30;1.00
20231;DHT22;10274;49.022;9.338;2024-02-28T11:57:34;8.10;1.00
20231;DHT22;10274;49.022;9.338;2024-02-28T12:00:04;8.10;1.00
20231;DHT22;10274;49.022;9.338;2024-02-28T12:02:32;8.40;1.00
20231;DHT22;10274;49.022;9.338;2024-02-28T12:05:02;8.50;1.00
20231;DHT22;10274;49.022;9.338;2024-02-28T12:07:30;8.20;1.00
20231;DHT22;10274;49.022;9.338;2024-02-28T12:09:57;8.20;1.00
20231;DHT22;10274;49.022;9.338;2024-02-28T12:12:24;8.20;1.00
20231;DHT22;10274;49.022;9.338;2024-02-28T12:14:51;8.40;1.00
20231;DHT22;10274;49.022;9.338;2024-02-28T12:17:18;8.50;1.00
20231;DHT22;10274;49.022;9.338;2024-02-28T12:19:44;8.60;1.00
20231;DHT22;10274;49.022;9.338;2024-02-28T12:22:12;8.80;1.00
20231;DHT22;10274;49.022;9.338;2024-02-28T12:24:39;8.90;1.00
20231;DHT22;10274;49.022;9.338;2024-02-28T12:27:06;8.90;1.00
20231;DHT22;10274;49.022;9.338;2024-02-28T12:29:32;8.90;1.00
20231;DHT22;10274;49.022;9.338;2024-02-28T12:31:59;9.00;1.00
20231;DHT22;10274;49.022;9.338;2024-02-28T12:34:26;8.60;1.00
20231;DHT22;10274;49.022;9.338;2024-02-28T12:36:53;8.50;1.00
20231;DHT22;10274;49.022;9.338;2024-02-28T12:39:21;8.70;1.00
20231;DHT22;10274;49.022;9.338;2024-02-28T12:41:48;9.00;1.00
20231;DHT22;10274;49.022;9.338;2024-02-28T12:44:15;9.00;1.00
20231;DHT22;10274;49.022;9.338;2024-02-28T12:46:41;9.10;1.00
20231;DHT22;10274;49.022;9.338;2024-02-28T12:49:08;9.10;1.00
20231;DHT22;10274;49.022;9.338;2024-02-28T12:51:37;9.20;1.00
20231;DHT22;10274;49.022;9.338;2024-02-28T12:54:04;9.30;1.00
20231;DHT22;10274;49.022;9.338;2024-02-28T12:56:32;9.20;1.00
20231;DHT22;10274;49.022;9.338;2024-02-28T12:58:59;9.10;1.00
20231;DHT22;10274;49.022;9.338;2024-02-28T13:01:26;8.90;1.00
20231;DHT22;10274;49.022;9.338;2024-02-28T13:03:53;8.90;1.00
20231;DHT22;10274;49.022;9.338;2024-02-28T13:06:20;9.00;1.00
20231;DHT22;10274;49.022;9.338;2024-02-28T13:08:47;9.10;1.00
20231;DHT22;10274;49.022;9.338;2024-02-28T13:11:17;9.10;1.00
20231;DHT22;10274;49.022;9.338;2024-02-28T13:13:46;9.10;1.00
20231;DHT22;10274;49.022;9.338;2024-02-28T13:16:13;9.30;1.00
20231;DHT22;10274;49.022;9.338;2024-02-28T13:18:39;9.40;1.00
20231;DHT22;10274;49.022;9.338;2024-02-28T13:21:06;9.60;1.00
20231;DHT22;10274;49.022;9.338;2024-02-28T13:23:33;9.40;1.00
20231;DHT22;10274;49.022;9.338;2024-02-28T13:26:00;9.40;1.00
20231;DHT22;10274;49.022;9.338;2024-02-28T13:28:27;9.50;1.00
20231;DHT22;10274;49.022;9.338;2024-02-28T13:30:57;9.50;1.00
20231;DHT22;10274;49.022;9.338;2024-02-28T13:33:23;9.60;1.00
20231;DHT22;10274;49.022;9.338;2024-02-28T13:35:51;9.80;1.00
20231;DHT22;10274;49.022;9.338;2024-02-28T13:38:18;10.10;1.00
20231;DHT22;10274;49.022;9.338;2024-02-28T13:40:46;10.10;1.00
20231;DHT22;10274;49.022;9.338;2024-02-28T13:43:12;10.20;1.00
20231;DHT22;10274;49.022;9.338;2024-02-28T13:45:39;10.20;1.00
20231;DHT22;10274;49.022;9.338;2024-02-28T13:48:16;10.50;1.00
20231;DHT22;10274;49.022;9.338;2024-02-28T13:50:43;10.40;1.00
20231;DHT22;10274;49.022;9.338;2024-02-28T13:53:11;10.80;1.00
20231;DHT22;10274;49.022;9.338;2024-02-28T13:55:38;10.80;1.00
20231;DHT22;10274;49.022;9.338;2024-02-28T13:58:04;10.80;1.00
20231;DHT22;10274;49.022;9.338;2024-02-28T14:00:32;10.80;1.00
20231;DHT22;10274;49.022;9.338;2024-02-28T14:03:00;10.30;1.00
20231;DHT22;10274;49.022;9.338;2024-02-28T14:05:28;10.30;1.00
20231;DHT22;10274;49.022;9.338;2024-02-28T14:07:55;10.20;1.00
20231;DHT22;10274;49.022;9.338;2024-02-28T14:10:22;10.50;1.00
20231;DHT22;10274;49.022;9.338;2024-02-28T14:12:49;10.90;1.00
20231;DHT22;10274;49.022;9.338;2024-02-28T14:15:18;10.90;1.00
20231;DHT22;10274;49.022;9.338;2024-02-28T14:17:45;11.00;1.00
20231;DHT22;10274;49.022;9.338;2024-02-28T14:20:12;11.10;1.00
20231;DHT22;10274;49.022;9.338;2024-02-28T14:22:40;11.10;1.00
20231;DHT22;10274;49.022;9.338;2024-02-28T14:25:11;10.70;1.00
20231;DHT22;10274;49.022;9.338;2024-02-28T14:27:38;10.40;1.00
20231;DHT22;10274;49.022;9.338;2024-02-28T14:30:06;10.10;1.00
20231;DHT22;10274;49.022;9.338;2024-02-28T14:32:34;10.00;1.00
20231;DHT22;10274;49.022;9.338;2024-02-28T14:35:01;10.00;1.00
20231;DHT22;10274;49.022;9.338;2024-02-28T14:37:28;9.90;1.00
20231;DHT22;10274;49.022;9.338;2024-02-28T14:39:56;9.70;1.00
20231;DHT22;10274;49.022;9.338;2024-02-28T14:42:23;9.70;1.00
20231;DHT22;10274;49.022;9.338;2024-02-28T14:44:50;9.80;1.00
20231;DHT22;10274;49.022;9.338;2024-02-28T14:47:18;9.70;1.00
20231;DHT22;10274;49.022;9.338;2024-02-28T14:49:45;9.70;1.00
20231;DHT22;10274;49.022;9.338;2024-02-28T14:52:12;9.70;1.00
20231;DHT22;10274;49.022;9.338;2024-02-28T14:54:39;9.50;1.00
20231;DHT22;10274;49.022;9.338;2024-02-28T14:57:07;9.50;1.00
20231;DHT22;10274;49.022;9.338;2024-02-28T14:59:33;9.70;1.00
20231;DHT22;10274;49.022;9.338;2024-02-28T15:02:00;9.80;1.00
20231;DHT22;10274;49.022;9.338;2024-02-28T15:04:27;9.60;1.00
20231;DHT22;10274;49.022;9.338;2024-02-28T15:06:54;9.50;1.00
20231;DHT22;10274;49.022;9.338;2024-02-28T15:09:20;9.30;1.00
20231;DHT22;10274;49.022;9.338;2024-02-28T15:11:47;9.20;1.00
20231;DHT22;10274;49.022;9.338;2024-02-28T15:14:16;9.10;1.00
20231;DHT22;10274;49.022;9.338;2024-02-28T15:16:42;9.20;1.00
20231;DHT22;10274;49.022;9.338;2024-02-28T15:19:09;9.20;1.00
20231;DHT22;10274;49.022;9.338;2024-02-28T15:21:36;9.30;1.00
20231;DHT22;10274;49.022;9.338;2024-02-28T15:24:03;9.40;1.00
20231;DHT22;10274;49.022;9.338;2024-02-28T15:26:30;9.40;1.00
20231;DHT22;10274;49.022;9.338;2024-02-28T15:28:56;9.30;1.00
20231;DHT22;10274;49.022;9.338;2024-02-28T15:31:24;9.20;1.00
20231;DHT22;10274;49.022;9.338;2024-02-28T15:33:52;9.20;1.00
20231;DHT22;10274;49.022;9.338;2024-02-28T15:36:19;9.20;1.00
20231;DHT22;10274;49.022;9.338;2024-02-28T15:38:45;9.30;1.00
20231;DHT22;10274;49.022;9.338;2024-02-28T15:41:12;9.50;1.00
20231;DHT22;10274;49.022;9.338;2024-02-28T15:43:39;9.60;1.00
20231;DHT22;10274;49.022;9.338;2024-02-28T15:46:05;9.60;1.00
20231;DHT22;10274;49.022;9.338;2024-02-28T15:48:33;9.40;1.00
20231;DHT22;10274;49.022;9.338;2024-02-28T15:51:00;9.50;1.00
20231;DHT22;10274;49.022;9.338;2024-02-28T15:53:27;9.80;1.00
20231;DHT22;10274;49.022;9.338;2024-02-28T15:55:54;10.00;1.00
20231;DHT22;10274;49.022;9.338;2024-02-28T15:58:20;10.00;1.00